sensor_id;sensor_type;location;lat;lon;timestamp;temperature;humidity
1812;DHT22;904;47.814;11.134;2023-09-19T10:18:45;17.30;96.90
1812;DHT22;904;47.814;11.134;2023-09-19T10:21:13;43.20;17.60
1812;DHT22;904;47.814;11.134;2023-09-19T10:38:43;43.60;17.90
1812;DHT22;904;47.814;11.134;2023-09-19T10:41:14;38.70;19.00
1812;DHT22;904;47.814;11.134;2023-09-19T10:43:44;37.30;20.70
1812;DHT22;904;47.814;11.134;2023-09-19T10:46:12;38.20;22.70
1812;DHT22;904;47.814;11.134;2023-09-19T10:48:41;42.10;19.70
1812;DHT22;904;47.814;11.134;2023-09-19T10:51:16;45.50;18.10
1812;DHT22;904;47.814;11.134;2023-09-19T10:53:49;48.90;15.20
1812;DHT22;904;47.814;11.134;2023-09-19T10:56:21;50.00;13.30
1812;DHT22;904;47.814;11.134;2023-09-19T10:58:50;50.30;12.20
1812;DHT22;904;47.814;11.134;2023-09-19T11:01:19;49.80;11.90
1812;DHT22;904;47.814;11.134;2023-09-19T11:07:01;45.20;13.40
1812;DHT22;904;47.814;11.134;2023-09-19T11:09:53;42.50;15.60
1812;DHT22;904;47.814;11.134;2023-09-19T11:12:49;40.40;16.80
1812;DHT22;904;47.814;11.134;2023-09-19T11:16:02;39.90;18.40
1812;DHT22;904;47.814;11.134;2023-09-19T11:18:51;38.80;18.20
1812;DHT22;904;47.814;11.134;2023-09-19T11:24:30;35.60;20.60
1812;DHT22;904;47.814;11.134;2023-09-19T11:27:12;34.80;21.90
1812;DHT22;904;47.814;11.134;2023-09-19T11:29:40;33.90;23.00
1812;DHT22;904;47.814;11.134;2023-09-19T11:32:07;32.90;24.00
1812;DHT22;904;47.814;11.134;2023-09-19T11:34:49;31.90;24.10
1812;DHT22;904;47.814;11.134;2023-09-19T11:40:45;31.10;26.80
1812;DHT22;904;47.814;11.134;2023-09-19T11:43:32;31.00;27.30
1812;DHT22;904;47.814;11.134;2023-09-19T11:46:05;31.10;27.30
1812;DHT22;904;47.814;11.134;2023-09-19T11:48:43;31.10;27.10
1812;DHT22;904;47.814;11.134;2023-09-19T11:51:15;31.20;27.30
1812;DHT22;904;47.814;11.134;2023-09-19T11:53:48;31.50;27.60
1812;DHT22;904;47.814;11.134;2023-09-19T11:56:18;31.50;27.70
1812;DHT22;904;47.814;11.134;2023-09-19T11:58:46;31.70;28.00
1812;DHT22;904;47.814;11.134;2023-09-19T12:01:20;33.00;28.00
1812;DHT22;904;47.814;11.134;2023-09-19T12:03:53;36.40;24.90
1812;DHT22;904;47.814;11.134;2023-09-19T12:06:23;40.40;22.50
1812;DHT22;904;47.814;11.134;2023-09-19T12:08:51;43.40;19.30
1812;DHT22;904;47.814;11.134;2023-09-19T12:11:22;45.60;17.80
1812;DHT22;904;47.814;11.134;2023-09-19T12:13:50;47.40;16.30
1812;DHT22;904;47.814;11.134;2023-09-19T12:16:20;48.60;15.50
1812;DHT22;904;47.814;11.134;2023-09-19T12:18:50;49.30;14.00
1812;DHT22;904;47.814;11.134;2023-09-19T12:21:25;49.30;12.50
1812;DHT22;904;47.814;11.134;2023-09-19T12:24:12;46.60;13.30
1812;DHT22;904;47.814;11.134;2023-09-19T12:26:44;45.70;15.00
1812;DHT22;904;47.814;11.134;2023-09-19T12:29:15;46.50;15.60
1812;DHT22;904;47.814;11.134;2023-09-19T12:31:50;46.60;13.50
1812;DHT22;904;47.814;11.134;2023-09-19T12:34:20;45.40;14.90
1812;DHT22;904;47.814;11.134;2023-09-19T12:36:48;45.20;14.70
1812;DHT22;904;47.814;11.134;2023-09-19T12:39:24;44.20;15.30
1812;DHT22;904;47.814;11.134;2023-09-19T12:41:53;43.40;15.50
1812;DHT22;904;47.814;11.134;2023-09-19T12:44:21;42.80;16.60
1812;DHT22;904;47.814;11.134;2023-09-19T12:46:50;43.70;15.80
1812;DHT22;904;47.814;11.134;2023-09-19T12:49:20;44.70;15.90
1812;DHT22;904;47.814;11.134;2023-09-19T12:51:49;45.70;15.00
1812;DHT22;904;47.814;11.134;2023-09-19T12:54:16;44.10;14.60
1812;DHT22;904;47.814;11.134;2023-09-19T12:56:45;43.60;16.00
1812;DHT22;904;47.814;11.134;2023-09-19T12:59:16;44.20;15.70
1812;DHT22;904;47.814;11.134;2023-09-19T13:01:43;44.70;15.40
1812;DHT22;904;47.814;11.134;2023-09-19T13:04:13;44.90;16.10
1812;DHT22;904;47.814;11.134;2023-09-19T13:06:44;45.40;14.80
1812;DHT22;904;47.814;11.134;2023-09-19T13:09:11;45.50;15.30
1812;DHT22;904;47.814;11.134;2023-09-19T13:11:40;44.50;15.60
1812;DHT22;904;47.814;11.134;2023-09-19T13:14:17;42.70;16.20
1812;DHT22;904;47.814;11.134;2023-09-19T13:16:57;40.50;17.30
1812;DHT22;904;47.814;11.134;2023-09-19T13:19:40;38.40;19.50
1812;DHT22;904;47.814;11.134;2023-09-19T13:22:35;36.80;21.30
1812;DHT22;904;47.814;11.134;2023-09-19T13:25:04;35.50;22.60
1812;DHT22;904;47.814;11.134;2023-09-19T13:27:32;34.50;23.90
1812;DHT22;904;47.814;11.134;2023-09-19T13:30:00;33.60;24.40
1812;DHT22;904;47.814;11.134;2023-09-19T13:32:27;32.80;25.30
1812;DHT22;904;47.814;11.134;2023-09-19T13:34:54;32.10;26.00
1812;DHT22;904;47.814;11.134;2023-09-19T13:37:21;31.60;27.10
1812;DHT22;904;47.814;11.134;2023-09-19T13:39:50;31.20;27.90
1812;DHT22;904;47.814;11.134;2023-09-19T13:42:17;30.80;28.40
1812;DHT22;904;47.814;11.134;2023-09-19T13:44:47;30.40;28.60
1812;DHT22;904;47.814;11.134;2023-09-19T13:47:15;30.10;29.20
1812;DHT22;904;47.814;11.134;2023-09-19T13:49:42;29.80;29.40
